Terminal Aerodrome Forecast
Issued by NWS Upton, NY

Home | Current Version | Previous Version | Text Only | Print | Product List | Glossary On
Versions: 1 2 3 4 5 6 7 8 9 10 11 12 13 14 15 16 17 18 19 20 21 22 23 24 25 26 27 28 29 30 31 32 33 34 35
977
FTUS41 KOKX 272336
TAFEWR
TAF
KEWR 272336Z 2800/2906 05012KT P6SM OVC015
     FM280200 05008KT P6SM OVC015
     FM280500 04005KT P6SM OVC015
     FM281000 03005KT P6SM OVC020
     FM281500 VRB04KT P6SM BKN025
     FM281700 17006KT P6SM BKN035
     FM282000 19009KT P6SM SCT035 SCT250
     FM290400 22005KT P6SM SCT250=

USA.gov is the U.S. government's official web portal to all federal, state and local government web resources and services.